Time;durP1;ratioP1;P1;durP2;ratioP2;P2;SDS_P1;SDS_P2;PMS_P1;PMS_P2;Temp;Humidity;BMP_temperature;BMP_pressure;BME280_temperature;BME280_humidity;BME280_pressure;Samples;Min_cycle;Max_cycle;Signal;HPM_P1;HPM_P2
2022/11/04 00:01:22;;;;;;;;;;;10.60;99.90;;;;;;5073844;28;20595;-76
2022/11/04 00:03:48;;;;;;;;;;;10.60;99.90;;;;;;5070536;28;19932;-76
2022/11/04 00:06:13;;;;;;;;;;;10.60;99.90;;;;;;5073312;28;20261;-75
2022/11/04 00:08:39;;;;;;;;;;;10.60;99.90;;;;;;5070262;28;20370;-76
2022/11/04 00:13:50;;;;;;;;;;;10.70;99.90;;;;;;5072807;28;19961;-76
2022/11/04 00:19:00;;;;;;;;;;;10.70;99.90;;;;;;5072655;28;19924;-76
2022/11/04 00:29:39;;;;;;;;;;;10.70;99.90;;;;;;5059908;28;19986;-76
2022/11/04 00:34:49;;;;;;;;;;;10.70;99.90;;;;;;5072736;28;19982;-76
2022/11/04 00:37:15;;;;;;;;;;;10.70;99.90;;;;;;5067755;28;20315;-76
2022/11/04 00:39:41;;;;;;;;;;;10.60;99.90;;;;;;5072068;28;19935;-77
2022/11/04 00:42:06;;;;;;;;;;;10.60;99.90;;;;;;5066487;28;19921;-76
2022/11/04 00:44:32;;;;;;;;;;;10.60;99.90;;;;;;5073486;28;19913;-76
2022/11/04 00:46:58;;;;;;;;;;;10.60;99.90;;;;;;5072080;28;19917;-76
2022/11/04 00:49:23;;;;;;;;;;;10.50;99.90;;;;;;5073974;28;19913;-76
2022/11/04 00:51:49;;;;;;;;;;;10.50;99.90;;;;;;5070610;28;19974;-76
2022/11/04 00:54:15;;;;;;;;;;;10.60;99.90;;;;;;5073717;28;19913;-76
2022/11/04 00:56:40;;;;;;;;;;;10.50;99.90;;;;;;5071496;28;19921;-75
2022/11/04 00:59:06;;;;;;;;;;;10.50;99.90;;;;;;5073102;28;20006;-76
2022/11/04 01:01:32;;;;;;;;;;;10.40;99.90;;;;;;5071219;28;19912;-75
2022/11/04 01:03:58;;;;;;;;;;;10.40;99.90;;;;;;5072179;28;19919;-76
2022/11/04 01:06:24;;;;;;;;;;;10.40;99.90;;;;;;5073761;28;19912;-76
2022/11/04 01:08:57;;;;;;;;;;;10.30;99.90;;;;;;5070119;28;19912;-76
2022/11/04 01:11:23;;;;;;;;;;;10.30;99.90;;;;;;5067205;28;20307;-75
2022/11/04 01:13:51;;;;;;;;;;;10.30;99.90;;;;;;5074278;28;20046;-77
2022/11/04 01:16:17;;;;;;;;;;;10.30;99.90;;;;;;5072204;28;19916;-75
2022/11/04 01:18:43;;;;;;;;;;;10.30;99.90;;;;;;5064375;28;19962;-75
2022/11/04 01:21:12;;;;;;;;;;;10.30;99.90;;;;;;5071746;28;19917;-76
2022/11/04 01:23:38;;;;;;;;;;;10.30;99.90;;;;;;5071824;28;19916;-78
2022/11/04 01:26:05;;;;;;;;;;;10.30;99.90;;;;;;5068909;28;19970;-76
2022/11/04 01:28:31;;;;;;;;;;;10.30;99.90;;;;;;5073221;28;19917;-76
2022/11/04 01:30:56;;;;;;;;;;;10.30;99.90;;;;;;5066088;28;19931;-76
2022/11/04 01:33:23;;;;;;;;;;;10.30;99.90;;;;;;5071195;28;20021;-76
2022/11/04 01:35:49;;;;;;;;;;;10.30;99.90;;;;;;5072288;28;19969;-76
2022/11/04 01:38:15;;;;;;;;;;;10.30;99.90;;;;;;5070808;28;20515;-80
2022/11/04 01:40:41;;;;;;;;;;;10.30;99.90;;;;;;5062990;28;19959;-79
2022/11/04 01:43:13;;;;;;;;;;;10.30;99.90;;;;;;5069655;28;20059;-76
2022/11/04 01:45:39;;;;;;;;;;;10.20;99.90;;;;;;5065822;28;20199;-76
2022/11/04 01:48:06;;;;;;;;;;;10.30;99.90;;;;;;5072131;28;19958;-77
2022/11/04 01:50:33;;;;;;;;;;;10.20;99.90;;;;;;5104786;28;20323;-76
2022/11/04 01:53:02;;;;;;;;;;;10.20;99.90;;;;;;5103993;28;19912;-76
2022/11/04 01:55:30;;;;;;;;;;;10.20;99.90;;;;;;5068751;28;20338;-76
2022/11/04 01:58:00;;;;;;;;;;;10.30;99.90;;;;;;5072085;28;20015;-75
2022/11/04 02:00:25;;;;;;;;;;;10.30;99.90;;;;;;5071152;28;20352;-76
2022/11/04 02:02:54;;;;;;;;;;;10.30;99.90;;;;;;5073255;28;19917;-75
2022/11/04 02:05:20;;;;;;;;;;;10.30;99.90;;;;;;5100433;28;19995;-75
2022/11/04 02:07:50;;;;;;;;;;;10.20;99.90;;;;;;5068784;28;19944;-83
2022/11/04 02:10:17;;;;;;;;;;;10.20;99.90;;;;;;5071189;28;19917;-75
2022/11/04 02:12:49;;;;;;;;;;;10.20;99.90;;;;;;5072213;28;20003;-75
2022/11/04 02:15:35;;;;;;;;;;;10.20;99.90;;;;;;5072141;28;19959;-74
2022/11/04 02:18:04;;;;;;;;;;;10.20;99.90;;;;;;5070255;28;19967;-74
2022/11/04 02:20:48;;;;;;;;;;;10.20;99.90;;;;;;5069031;28;19942;-74
2022/11/04 02:23:25;;;;;;;;;;;10.10;99.90;;;;;;5067665;28;19912;-77
2022/11/04 02:25:50;;;;;;;;;;;10.00;99.90;;;;;;5072678;28;19947;-75
2022/11/04 02:28:35;;;;;;;;;;;10.00;99.90;;;;;;5068889;28;19952;-76
2022/11/04 02:31:06;;;;;;;;;;;10.00;99.90;;;;;;5108466;28;19913;-76
2022/11/04 02:33:46;;;;;;;;;;;9.90;99.90;;;;;;5075803;28;19961;-75
2022/11/04 02:36:15;;;;;;;;;;;9.90;99.90;;;;;;5070208;28;20373;-74
2022/11/04 02:38:49;;;;;;;;;;;9.90;99.90;;;;;;5068199;28;19921;-74
2022/11/04 02:41:20;;;;;;;;;;;9.90;99.90;;;;;;5067899;28;19912;-75
2022/11/04 02:43:55;;;;;;;;;;;9.90;99.90;;;;;;5074311;28;19916;-78
2022/11/04 02:46:30;;;;;;;;;;;9.90;99.90;;;;;;5073683;28;20057;-75
2022/11/04 02:48:55;;;;;;;;;;;10.00;99.90;;;;;;5066651;28;20406;-74
2022/11/04 02:51:25;;;;;;;;;;;9.90;99.90;;;;;;5078838;28;20010;-76
2022/11/04 02:53:51;;;;;;;;;;;9.90;99.90;;;;;;5071749;28;20311;-75
2022/11/04 02:56:18;;;;;;;;;;;9.80;99.90;;;;;;5072272;28;19931;-75
2022/11/04 02:58:55;;;;;;;;;;;9.70;99.90;;;;;;5074802;28;19924;-76
2022/11/04 03:01:22;;;;;;;;;;;9.70;99.90;;;;;;5075878;28;19923;-75
2022/11/04 03:03:52;;;;;;;;;;;9.60;99.90;;;;;;5074109;28;19993;-76
2022/11/04 03:06:20;;;;;;;;;;;9.50;99.90;;;;;;5068124;28;19916;-75
2022/11/04 03:08:47;;;;;;;;;;;9.50;99.90;;;;;;5066873;28;20035;-75
2022/11/04 03:11:15;;;;;;;;;;;9.40;99.90;;;;;;5071506;28;20231;-76
2022/11/04 03:13:44;;;;;;;;;;;9.40;99.90;;;;;;5074383;28;20003;-76
2022/11/04 03:16:12;;;;;;;;;;;9.30;99.90;;;;;;5072750;28;19938;-75
2022/11/04 03:18:46;;;;;;;;;;;9.20;99.90;;;;;;5073447;28;20337;-76
2022/11/04 03:21:13;;;;;;;;;;;9.20;99.90;;;;;;5074695;28;19925;-76
2022/11/04 03:23:39;;;;;;;;;;;9.20;99.90;;;;;;5069973;28;19913;-76
2022/11/04 03:26:11;;;;;;;;;;;9.10;99.90;;;;;;5073365;28;19974;-78
2022/11/04 03:28:42;;;;;;;;;;;9.10;99.90;;;;;;5071006;28;19974;-76
2022/11/04 03:31:12;;;;;;;;;;;9.10;99.90;;;;;;5106672;28;20276;-76
2022/11/04 03:33:40;;;;;;;;;;;9.00;99.90;;;;;;5063926;28;19958;-79
2022/11/04 03:36:07;;;;;;;;;;;9.00;99.90;;;;;;5070472;28;19990;-76
2022/11/04 03:38:33;;;;;;;;;;;8.90;99.90;;;;;;5073431;28;19928;-76
2022/11/04 03:41:01;;;;;;;;;;;8.90;99.90;;;;;;5071400;28;20208;-76
2022/11/04 03:43:27;;;;;;;;;;;8.90;99.90;;;;;;5074321;28;19986;-76
2022/11/04 03:45:54;;;;;;;;;;;8.90;99.90;;;;;;5073276;28;20012;-76
2022/11/04 03:48:19;;;;;;;;;;;8.80;99.90;;;;;;5068813;28;20007;-76
2022/11/04 03:50:46;;;;;;;;;;;8.80;99.90;;;;;;5060829;28;20280;-76
2022/11/04 03:53:13;;;;;;;;;;;8.80;99.90;;;;;;5060587;28;20262;-76
2022/11/04 03:55:38;;;;;;;;;;;8.80;99.90;;;;;;5072099;28;19916;-76
2022/11/04 03:58:12;;;;;;;;;;;8.90;99.90;;;;;;5070823;28;19962;-76
2022/11/04 04:00:40;;;;;;;;;;;8.80;99.90;;;;;;5068374;28;19965;-76
2022/11/04 04:03:08;;;;;;;;;;;8.90;99.90;;;;;;5104922;28;19920;-75
2022/11/04 04:05:37;;;;;;;;;;;8.90;99.90;;;;;;5071969;28;20212;-76
2022/11/04 04:08:08;;;;;;;;;;;8.90;99.90;;;;;;5067215;28;19912;-76
2022/11/04 04:10:41;;;;;;;;;;;8.90;99.90;;;;;;5064910;28;19916;-76
2022/11/04 04:13:12;;;;;;;;;;;8.90;99.90;;;;;;5064683;28;19921;-76
2022/11/04 04:15:43;;;;;;;;;;;8.90;99.90;;;;;;5067163;28;19971;-75
2022/11/04 04:18:11;;;;;;;;;;;8.90;99.90;;;;;;5072620;28;19924;-76
2022/11/04 04:20:37;;;;;;;;;;;9.00;99.90;;;;;;5105306;28;19966;-76
2022/11/04 04:28:45;;;;;;;;;;;9.00;99.90;;;;;;5070414;28;19938;-76
2022/11/04 04:31:48;;;;;;;;;;;9.10;99.90;;;;;;5066754;28;19920;-75
2022/11/04 04:34:00;;;;;;;;;;;9.10;99.90;;;;;;5072658;28;19960;-75
2022/11/04 04:36:26;;;;;;;;;;;9.10;99.90;;;;;;5073809;28;19955;-76
2022/11/04 04:47:18;;;;;;;;;;;9.20;99.90;;;;;;5072091;28;21299;-76
2022/11/04 04:49:57;;;;;;;;;;;9.20;99.90;;;;;;5067485;28;19938;-76
2022/11/04 04:52:24;;;;;;;;;;;9.20;99.90;;;;;;5079253;28;19919;-76
2022/11/04 04:54:50;;;;;;;;;;;9.20;99.90;;;;;;5071647;28;19970;-76
2022/11/04 04:57:15;;;;;;;;;;;9.20;99.90;;;;;;5073019;28;19920;-76
2022/11/04 04:59:41;;;;;;;;;;;9.20;99.90;;;;;;5071394;28;20015;-76
2022/11/04 05:02:06;;;;;;;;;;;9.20;99.90;;;;;;5063263;28;19935;-75
2022/11/04 05:04:32;;;;;;;;;;;9.20;99.90;;;;;;5071914;28;19917;-76
2022/11/04 05:06:58;;;;;;;;;;;9.20;99.90;;;;;;5073921;28;19909;-76
2022/11/04 05:09:23;;;;;;;;;;;9.20;99.90;;;;;;5071612;28;19912;-76
2022/11/04 05:11:49;;;;;;;;;;;9.20;99.90;;;;;;5071946;28;20007;-76
2022/11/04 05:14:15;;;;;;;;;;;9.20;99.90;;;;;;5070608;28;19909;-76
2022/11/04 05:16:40;;;;;;;;;;;9.20;99.90;;;;;;5070961;28;20303;-76
2022/11/04 05:19:06;;;;;;;;;;;9.30;99.90;;;;;;5072009;28;20189;-76
2022/11/04 05:21:32;;;;;;;;;;;9.40;99.90;;;;;;5069664;28;20256;-76
2022/11/04 05:23:57;;;;;;;;;;;9.40;99.90;;;;;;5073733;28;19953;-76
2022/11/04 05:26:23;;;;;;;;;;;9.40;99.90;;;;;;5070269;28;19917;-80
2022/11/04 05:28:49;;;;;;;;;;;9.40;99.90;;;;;;5073459;28;19924;-76
2022/11/04 05:31:14;;;;;;;;;;;9.40;99.90;;;;;;5073695;28;19908;-76
2022/11/04 05:33:40;;;;;;;;;;;9.40;99.90;;;;;;5067600;28;19927;-76
2022/11/04 05:36:10;;;;;;;;;;;9.40;99.90;;;;;;5070481;28;19919;-80
2022/11/04 05:38:36;;;;;;;;;;;9.30;99.90;;;;;;5072402;28;19976;-76
2022/11/04 05:41:01;;;;;;;;;;;9.20;99.90;;;;;;5071449;28;19974;-76
2022/11/04 05:43:27;;;;;;;;;;;9.30;99.90;;;;;;5072326;28;19921;-76
2022/11/04 05:45:53;;;;;;;;;;;9.40;99.90;;;;;;5070936;28;19924;-76
2022/11/04 05:48:19;;;;;;;;;;;9.40;99.90;;;;;;5070180;28;19916;-77
2022/11/04 05:50:45;;;;;;;;;;;9.40;99.90;;;;;;5072021;28;19913;-76
2022/11/04 05:53:11;;;;;;;;;;;9.30;99.90;;;;;;5072865;28;20238;-76
2022/11/04 05:55:36;;;;;;;;;;;9.40;99.90;;;;;;5073210;28;19916;-76
2022/11/04 05:58:02;;;;;;;;;;;9.40;99.90;;;;;;5066783;28;20015;-76
2022/11/04 06:00:28;;;;;;;;;;;9.40;99.90;;;;;;5070985;28;19921;-76
2022/11/04 06:02:56;;;;;;;;;;;9.30;99.90;;;;;;5066293;28;19986;-76
2022/11/04 06:05:22;;;;;;;;;;;9.30;99.90;;;;;;5077351;28;20384;-77
2022/11/04 06:07:47;;;;;;;;;;;9.40;99.90;;;;;;5075782;28;20208;-76
2022/11/04 06:10:13;;;;;;;;;;;9.40;99.90;;;;;;5076577;28;19919;-76
2022/11/04 06:12:39;;;;;;;;;;;9.30;99.90;;;;;;5065896;28;19947;-76
2022/11/04 06:15:05;;;;;;;;;;;9.20;99.90;;;;;;5076820;28;20274;-76
2022/11/04 06:17:30;;;;;;;;;;;9.20;99.90;;;;;;5074800;28;19947;-77
2022/11/04 06:19:56;;;;;;;;;;;9.10;99.90;;;;;;5068507;28;19940;-76
2022/11/04 06:22:22;;;;;;;;;;;9.10;99.90;;;;;;5075869;28;20326;-77
2022/11/04 06:24:47;;;;;;;;;;;9.10;99.90;;;;;;5075924;28;20008;-76
2022/11/04 06:27:13;;;;;;;;;;;9.10;99.90;;;;;;5073925;28;20560;-76
2022/11/04 06:29:40;;;;;;;;;;;9.00;99.90;;;;;;5070589;28;19915;-76
2022/11/04 06:32:06;;;;;;;;;;;9.00;99.90;;;;;;5076532;28;20189;-76
2022/11/04 06:34:31;;;;;;;;;;;8.90;99.90;;;;;;5069550;28;19917;-76
2022/11/04 06:36:57;;;;;;;;;;;8.90;99.90;;;;;;5074465;28;20443;-76
2022/11/04 06:39:23;;;;;;;;;;;9.00;99.90;;;;;;5076213;28;19921;-76
2022/11/04 06:41:49;;;;;;;;;;;9.00;99.90;;;;;;5076707;28;19913;-76
2022/11/04 06:44:14;;;;;;;;;;;9.00;99.90;;;;;;5075403;28;19923;-76
2022/11/04 06:46:41;;;;;;;;;;;9.00;99.90;;;;;;5072285;28;19912;-76
2022/11/04 06:49:10;;;;;;;;;;;9.00;99.90;;;;;;5074588;28;20256;-76
2022/11/04 06:51:36;;;;;;;;;;;9.00;99.90;;;;;;5076491;28;20419;-76
2022/11/04 06:54:02;;;;;;;;;;;8.90;99.90;;;;;;5074960;28;19923;-76
2022/11/04 06:56:27;;;;;;;;;;;9.00;99.90;;;;;;5076647;28;20243;-76
2022/11/04 06:58:53;;;;;;;;;;;8.90;99.90;;;;;;5072501;28;19999;-76
2022/11/04 07:01:20;;;;;;;;;;;8.90;99.90;;;;;;5072301;28;19965;-76
2022/11/04 07:03:53;;;;;;;;;;;8.90;99.90;;;;;;5072098;28;19931;-76
2022/11/04 07:06:19;;;;;;;;;;;8.90;99.90;;;;;;5071613;28;19912;-75
2022/11/04 07:08:45;;;;;;;;;;;8.90;99.90;;;;;;5075449;28;20270;-76
2022/11/04 07:11:11;;;;;;;;;;;8.80;99.90;;;;;;5074044;28;19921;-76
2022/11/04 07:13:36;;;;;;;;;;;8.90;99.90;;;;;;5072289;28;20215;-77
2022/11/04 07:16:05;;;;;;;;;;;9.00;99.90;;;;;;5074417;28;19913;-76
2022/11/04 07:18:31;;;;;;;;;;;9.00;99.90;;;;;;5069612;28;19928;-76
2022/11/04 07:20:57;;;;;;;;;;;9.00;99.90;;;;;;5059291;28;19912;-76
2022/11/04 07:23:23;;;;;;;;;;;9.00;99.90;;;;;;5072688;28;19912;-76
2022/11/04 07:25:48;;;;;;;;;;;9.10;99.90;;;;;;5076023;28;19912;-76
2022/11/04 07:28:14;;;;;;;;;;;9.10;99.90;;;;;;5076046;28;19916;-76
2022/11/04 07:30:40;;;;;;;;;;;9.10;99.90;;;;;;5069682;28;19913;-81
2022/11/04 07:33:05;;;;;;;;;;;9.10;99.90;;;;;;5075245;28;19927;-76
2022/11/04 07:35:31;;;;;;;;;;;9.20;99.90;;;;;;5074686;28;19948;-76
2022/11/04 07:37:57;;;;;;;;;;;9.20;99.90;;;;;;5067642;28;20254;-76
2022/11/04 07:40:23;;;;;;;;;;;9.30;99.90;;;;;;5074490;28;19992;-76
2022/11/04 07:42:48;;;;;;;;;;;9.40;99.90;;;;;;5074616;28;20007;-76
2022/11/04 07:45:14;;;;;;;;;;;9.50;99.90;;;;;;5074462;28;19958;-76
2022/11/04 07:47:40;;;;;;;;;;;9.60;99.90;;;;;;5074558;28;19919;-75
2022/11/04 07:50:06;;;;;;;;;;;9.70;99.90;;;;;;5070143;28;20307;-76
2022/11/04 07:52:31;;;;;;;;;;;9.70;99.90;;;;;;5075111;28;19917;-81
2022/11/04 07:54:57;;;;;;;;;;;9.70;99.90;;;;;;5074943;28;20309;-76
2022/11/04 07:57:23;;;;;;;;;;;9.60;99.90;;;;;;5073773;28;20307;-76
2022/11/04 07:59:48;;;;;;;;;;;9.60;99.90;;;;;;5072692;28;19959;-76
2022/11/04 08:02:14;;;;;;;;;;;9.70;99.90;;;;;;5064432;28;19978;-76
2022/11/04 08:04:40;;;;;;;;;;;9.80;99.90;;;;;;5073597;28;19951;-76
2022/11/04 08:07:07;;;;;;;;;;;9.80;99.90;;;;;;5074419;28;19947;-80
2022/11/04 08:09:33;;;;;;;;;;;9.90;99.90;;;;;;5107504;28;19912;-76
2022/11/04 08:11:58;;;;;;;;;;;10.00;99.90;;;;;;5073905;28;20294;-76
2022/11/04 08:14:24;;;;;;;;;;;10.10;99.90;;;;;;5073420;28;19919;-76
2022/11/04 08:16:50;;;;;;;;;;;10.10;99.90;;;;;;5074166;28;19965;-76
2022/11/04 08:19:16;;;;;;;;;;;10.20;99.90;;;;;;5062176;28;20503;-83
2022/11/04 08:21:41;;;;;;;;;;;10.30;99.90;;;;;;5074914;28;19920;-82
2022/11/04 08:24:07;;;;;;;;;;;10.30;99.90;;;;;;5073121;28;20518;-83
2022/11/04 08:26:33;;;;;;;;;;;10.20;99.90;;;;;;5063449;28;19924;-76
2022/11/04 08:29:00;;;;;;;;;;;10.20;99.90;;;;;;5073422;28;19912;-76
2022/11/04 08:31:27;;;;;;;;;;;10.20;99.90;;;;;;5073052;28;20009;-76
2022/11/04 08:33:53;;;;;;;;;;;10.10;99.90;;;;;;5074856;28;19913;-76
2022/11/04 08:36:21;;;;;;;;;;;10.10;99.90;;;;;;5073267;28;20050;-76
2022/11/04 08:38:47;;;;;;;;;;;10.10;99.90;;;;;;5074602;28;20409;-76
2022/11/04 08:41:14;;;;;;;;;;;10.00;99.90;;;;;;5074169;28;19927;-76
2022/11/04 08:43:39;;;;;;;;;;;10.00;99.90;;;;;;5074820;28;19912;-76
2022/11/04 08:46:06;;;;;;;;;;;9.90;99.90;;;;;;5072689;28;19921;-76
2022/11/04 08:48:35;;;;;;;;;;;9.80;99.90;;;;;;5073211;28;19928;-76
2022/11/04 08:51:01;;;;;;;;;;;9.80;99.90;;;;;;5072352;28;19938;-76
2022/11/04 08:53:27;;;;;;;;;;;9.80;99.90;;;;;;5072979;28;20327;-75
2022/11/04 08:55:53;;;;;;;;;;;9.70;99.90;;;;;;5073596;28;20003;-75
2022/11/04 08:58:18;;;;;;;;;;;9.80;99.90;;;;;;5071355;28;20323;-76
2022/11/04 09:00:44;;;;;;;;;;;9.80;99.90;;;;;;5074253;28;19999;-76
2022/11/04 09:03:10;;;;;;;;;;;9.80;99.90;;;;;;5070079;28;20011;-76
2022/11/04 09:05:51;;;;;;;;;;;9.80;99.90;;;;;;5073304;28;19920;-76
2022/11/04 09:08:17;;;;;;;;;;;9.70;99.90;;;;;;5073423;28;19916;-75
2022/11/04 09:10:43;;;;;;;;;;;9.70;99.90;;;;;;5073246;28;19920;-76
2022/11/04 09:13:10;;;;;;;;;;;9.60;99.90;;;;;;5071435;28;19923;-76
2022/11/04 09:15:36;;;;;;;;;;;9.70;99.90;;;;;;5070130;28;19916;-76
2022/11/04 09:18:02;;;;;;;;;;;9.70;99.90;;;;;;5072490;28;19924;-76
2022/11/04 09:20:28;;;;;;;;;;;9.70;99.90;;;;;;5102323;28;19917;-76
2022/11/04 09:22:57;;;;;;;;;;;9.70;99.90;;;;;;5071443;28;19920;-76
2022/11/04 09:25:22;;;;;;;;;;;9.70;99.90;;;;;;5071063;28;19913;-76
2022/11/04 09:27:48;;;;;;;;;;;9.80;99.90;;;;;;5068181;28;19999;-75
2022/11/04 09:30:14;;;;;;;;;;;9.90;99.90;;;;;;5062629;28;20003;-76
2022/11/04 09:32:40;;;;;;;;;;;10.00;99.90;;;;;;5070350;28;19944;-76
2022/11/04 09:35:06;;;;;;;;;;;10.10;99.90;;;;;;5074107;28;20575;-76
2022/11/04 09:37:31;;;;;;;;;;;10.20;99.90;;;;;;5076067;28;19916;-76
2022/11/04 09:39:57;;;;;;;;;;;10.20;99.90;;;;;;5074725;28;19959;-75
2022/11/04 09:42:32;;;;;;;;;;;10.30;99.90;;;;;;5073446;28;19920;-76
2022/11/04 09:45:01;;;;;;;;;;;10.30;99.90;;;;;;5076693;28;19923;-76
2022/11/04 09:47:28;;;;;;;;;;;10.50;99.90;;;;;;5074748;28;19951;-75
2022/11/04 09:49:57;;;;;;;;;;;10.70;99.90;;;;;;5076969;28;20227;-76
2022/11/04 09:52:23;;;;;;;;;;;10.80;99.90;;;;;;5058941;28;20319;-76
2022/11/04 09:54:57;;;;;;;;;;;10.90;99.90;;;;;;5077945;28;19916;-76
2022/11/04 09:57:23;;;;;;;;;;;10.90;99.90;;;;;;5077432;28;19916;-76
2022/11/04 09:59:49;;;;;;;;;;;10.90;99.90;;;;;;5077892;28;19916;-76
2022/11/04 10:02:33;;;;;;;;;;;10.90;99.90;;;;;;5074132;28;19927;-76
2022/11/04 10:05:03;;;;;;;;;;;11.00;99.90;;;;;;5089227;28;19920;-76
2022/11/04 10:07:52;;;;;;;;;;;11.10;99.90;;;;;;5075579;28;19969;-76
2022/11/04 10:10:21;;;;;;;;;;;11.20;99.90;;;;;;5072883;28;19921;-76
2022/11/04 10:12:52;;;;;;;;;;;11.40;99.90;;;;;;5075539;28;19917;-76
2022/11/04 10:15:23;;;;;;;;;;;11.40;99.90;;;;;;5074349;28;20049;-76
2022/11/04 10:17:49;;;;;;;;;;;11.50;99.90;;;;;;5073846;28;20252;-76
2022/11/04 10:20:24;;;;;;;;;;;11.50;99.90;;;;;;5077153;28;20042;-76
2022/11/04 10:22:58;;;;;;;;;;;11.60;99.90;;;;;;5072226;28;20304;-76
2022/11/04 10:25:32;;;;;;;;;;;11.70;99.90;;;;;;5076022;28;19952;-75
2022/11/04 10:27:58;;;;;;;;;;;11.80;99.90;;;;;;5072586;28;19973;-76
2022/11/04 10:30:24;;;;;;;;;;;11.90;99.90;;;;;;5065242;28;20304;-76
2022/11/04 10:33:05;;;;;;;;;;;11.90;99.90;;;;;;5073195;28;19957;-76
2022/11/04 10:38:16;;;;;;;;;;;12.10;99.90;;;;;;5075968;28;19923;-82
2022/11/04 10:40:44;;;;;;;;;;;12.10;99.90;;;;;;5076347;28;19992;-76
2022/11/04 10:43:14;;;;;;;;;;;12.10;99.90;;;;;;5072865;28;19995;-75
2022/11/04 10:45:43;;;;;;;;;;;12.20;99.90;;;;;;5074532;28;20003;-77
2022/11/04 10:48:16;;;;;;;;;;;12.20;99.90;;;;;;5077238;28;19967;-78
2022/11/04 10:50:57;;;;;;;;;;;12.30;99.90;;;;;;5075617;28;19916;-76
2022/11/04 10:53:27;;;;;;;;;;;12.30;99.90;;;;;;5072977;28;19965;-76
2022/11/04 10:56:11;;;;;;;;;;;12.50;99.90;;;;;;5075887;28;19920;-76
2022/11/04 10:58:46;;;;;;;;;;;12.50;99.90;;;;;;5109485;28;19929;-75
2022/11/04 11:01:26;;;;;;;;;;;12.70;99.90;;;;;;5067419;28;19912;-76
2022/11/04 11:03:53;;;;;;;;;;;12.90;99.90;;;;;;5099248;28;20226;-76
2022/11/04 11:06:24;;;;;;;;;;;13.00;99.90;;;;;;5067513;28;20349;-75
2022/11/04 11:08:50;;;;;;;;;;;13.20;99.90;;;;;;5076481;28;19970;-76
2022/11/04 11:11:33;;;;;;;;;;;13.30;99.90;;;;;;5075887;28;20349;-75
2022/11/04 11:13:58;;;;;;;;;;;13.40;99.90;;;;;;5073462;28;19923;-75
2022/11/04 11:16:25;;;;;;;;;;;13.40;99.90;;;;;;5073839;28;19914;-76
2022/11/04 11:19:11;;;;;;;;;;;13.50;99.90;;;;;;5076160;28;19920;-75
2022/11/04 11:21:47;;;;;;;;;;;13.60;99.90;;;;;;5074993;28;19913;-75
2022/11/04 11:24:26;;;;;;;;;;;13.70;99.90;;;;;;5076022;28;19995;-76
2022/11/04 11:26:56;;;;;;;;;;;13.80;99.90;;;;;;5074544;28;20018;-76
2022/11/04 11:29:26;;;;;;;;;;;13.90;99.90;;;;;;5074995;28;19939;-76
2022/11/04 11:31:52;;;;;;;;;;;13.90;99.90;;;;;;5074032;28;19921;-76
2022/11/04 11:34:21;;;;;;;;;;;13.80;99.90;;;;;;5076351;28;19917;-76
2022/11/04 11:36:47;;;;;;;;;;;13.80;99.90;;;;;;5072845;28;19969;-77
2022/11/04 11:39:18;;;;;;;;;;;13.70;99.90;;;;;;5063592;28;20282;-77
2022/11/04 11:41:59;;;;;;;;;;;13.50;99.90;;;;;;5075184;28;19962;-76
2022/11/04 11:44:26;;;;;;;;;;;13.20;99.90;;;;;;5107366;28;20011;-75
2022/11/04 11:46:54;;;;;;;;;;;13.30;99.90;;;;;;5075185;28;19999;-75
2022/11/04 11:49:26;;;;;;;;;;;13.40;99.90;;;;;;5075531;28;20307;-75
2022/11/04 11:51:51;;;;;;;;;;;13.50;99.90;;;;;;5069672;28;19923;-75
2022/11/04 11:54:37;;;;;;;;;;;13.40;99.90;;;;;;5074590;28;19913;-75
2022/11/04 11:57:10;;;;;;;;;;;13.30;99.90;;;;;;5071496;28;19920;-75
2022/11/04 11:59:41;;;;;;;;;;;13.20;99.90;;;;;;5073626;28;19920;-75
2022/11/04 12:02:16;;;;;;;;;;;13.10;99.90;;;;;;5071206;28;19982;-75
2022/11/04 12:04:42;;;;;;;;;;;13.10;99.90;;;;;;5107754;28;19940;-75
2022/11/04 12:07:18;;;;;;;;;;;13.00;99.90;;;;;;5075390;28;19966;-75
2022/11/04 12:09:53;;;;;;;;;;;13.10;99.90;;;;;;5069915;28;19923;-75
2022/11/04 12:12:19;;;;;;;;;;;13.20;99.90;;;;;;5071902;28;19912;-76
2022/11/04 12:14:50;;;;;;;;;;;13.30;99.90;;;;;;5068357;28;19916;-75
2022/11/04 12:17:26;;;;;;;;;;;13.30;99.90;;;;;;5073152;28;19920;-75
2022/11/04 12:20:02;;;;;;;;;;;13.30;99.90;;;;;;5106136;28;19951;-79
2022/11/04 12:22:36;;;;;;;;;;;13.20;99.90;;;;;;5071667;28;19955;-75
2022/11/04 12:25:11;;;;;;;;;;;13.00;99.90;;;;;;5072030;28;19912;-75
2022/11/04 12:27:37;;;;;;;;;;;12.90;99.90;;;;;;5085996;28;19912;-78
2022/11/04 12:30:05;;;;;;;;;;;12.70;99.90;;;;;;5071299;28;19923;-75
2022/11/04 12:32:37;;;;;;;;;;;12.60;99.90;;;;;;5074142;28;20296;-75
2022/11/04 12:35:10;;;;;;;;;;;12.60;99.90;;;;;;5068874;28;19947;-75
2022/11/04 12:38:08;;;;;;;;;;;12.50;99.90;;;;;;5068060;28;19967;-79
2022/11/04 12:40:40;;;;;;;;;;;12.20;99.90;;;;;;5017930;28;19961;-76
2022/11/04 12:43:19;;;;;;;;;;;12.10;99.90;;;;;;5005580;28;20020;-75
2022/11/04 12:45:44;;;;;;;;;;;11.80;99.90;;;;;;5019407;28;20355;-74
2022/11/04 12:48:15;;;;;;;;;;;11.70;99.90;;;;;;5017247;28;19913;-74
2022/11/04 12:50:50;;;;;;;;;;;11.60;99.90;;;;;;5005295;28;19920;-74
2022/11/04 12:53:31;;;;;;;;;;;11.40;99.90;;;;;;5013236;28;19970;-74
2022/11/04 12:56:06;;;;;;;;;;;11.30;99.90;;;;;;5015387;28;20218;-74
2022/11/04 12:58:50;;;;;;;;;;;11.30;99.90;;;;;;5017749;28;20224;-74
2022/11/04 13:01:22;;;;;;;;;;;11.20;99.90;;;;;;5022247;28;19962;-74
2022/11/04 13:04:09;;;;;;;;;;;11.20;99.90;;;;;;5020058;28;19924;-75
2022/11/04 13:06:43;;;;;;;;;;;11.10;99.90;;;;;;5004074;28;20355;-75
2022/11/04 13:09:17;;;;;;;;;;;11.10;99.90;;;;;;5032544;28;19917;-75
2022/11/04 13:11:50;;;;;;;;;;;11.00;99.90;;;;;;5024381;28;20340;-74
2022/11/04 13:14:29;;;;;;;;;;;10.90;99.90;;;;;;5026937;28;19936;-74
2022/11/04 13:16:59;;;;;;;;;;;10.90;99.90;;;;;;5068909;28;19916;-74
2022/11/04 13:19:29;;;;;;;;;;;10.80;99.90;;;;;;5077548;28;19923;-75
2022/11/04 13:21:55;;;;;;;;;;;10.80;99.90;;;;;;5071422;28;19962;-74
2022/11/04 13:24:29;;;;;;;;;;;10.80;99.90;;;;;;5071470;28;20255;-75
2022/11/04 13:26:57;;;;;;;;;;;10.80;99.90;;;;;;5071637;28;20006;-75
2022/11/04 13:29:24;;;;;;;;;;;10.70;99.90;;;;;;5071181;28;20002;-74
2022/11/04 13:31:59;;;;;;;;;;;10.60;99.90;;;;;;5072560;28;20007;-75
2022/11/04 13:34:31;;;;;;;;;;;10.60;99.90;;;;;;5073688;28;19917;-75
2022/11/04 13:37:17;;;;;;;;;;;10.60;99.90;;;;;;5064969;28;19962;-75
2022/11/04 13:39:56;;;;;;;;;;;10.60;99.90;;;;;;5059768;28;19928;-75
2022/11/04 13:42:28;;;;;;;;;;;10.60;99.90;;;;;;5106597;28;19920;-75
2022/11/04 13:44:58;;;;;;;;;;;10.60;99.90;;;;;;5072246;28;20325;-75
2022/11/04 13:47:31;;;;;;;;;;;10.60;99.90;;;;;;5070620;28;20387;-75
2022/11/04 13:49:57;;;;;;;;;;;10.50;99.90;;;;;;5069654;28;20294;-75
2022/11/04 13:52:28;;;;;;;;;;;10.50;99.90;;;;;;5068940;28;19999;-76
2022/11/04 13:54:56;;;;;;;;;;;10.60;99.90;;;;;;5081871;28;19937;-76
2022/11/04 13:57:26;;;;;;;;;;;10.50;99.90;;;;;;5073357;28;19921;-75
2022/11/04 14:00:13;;;;;;;;;;;10.60;99.90;;;;;;5105504;28;20250;-75
2022/11/04 14:02:42;;;;;;;;;;;10.60;99.90;;;;;;5068485;28;19913;-75
2022/11/04 14:05:23;;;;;;;;;;;10.70;99.90;;;;;;5062379;28;19912;-75
2022/11/04 14:08:00;;;;;;;;;;;10.60;99.90;;;;;;5060206;28;19924;-75
2022/11/04 14:10:44;;;;;;;;;;;10.70;99.90;;;;;;5071813;28;19923;-75
2022/11/04 14:13:33;;;;;;;;;;;10.60;99.90;;;;;;5065168;28;19923;-75
2022/11/04 14:16:17;;;;;;;;;;;10.70;99.90;;;;;;5069505;28;19931;-75
2022/11/04 14:18:46;;;;;;;;;;;10.60;99.90;;;;;;5073050;28;19917;-75
2022/11/04 14:21:12;;;;;;;;;;;10.60;99.90;;;;;;5073123;28;21716;-75
2022/11/04 14:23:39;;;;;;;;;;;10.60;99.90;;;;;;5075900;28;20070;-75
2022/11/04 14:26:06;;;;;;;;;;;10.60;99.90;;;;;;5073288;28;19917;-79
2022/11/04 14:28:32;;;;;;;;;;;10.60;99.90;;;;;;5073714;28;20274;-76
2022/11/04 14:31:00;;;;;;;;;;;10.60;99.90;;;;;;5076159;28;20001;-75
2022/11/04 14:33:29;;;;;;;;;;;10.50;99.90;;;;;;5074740;28;19975;-75
2022/11/04 14:35:56;;;;;;;;;;;10.50;99.90;;;;;;5076500;28;19997;-78
2022/11/04 14:38:27;;;;;;;;;;;10.50;99.90;;;;;;5074693;28;20377;-76
2022/11/04 14:41:19;;;;;;;;;;;10.50;99.90;;;;;;5069537;28;19917;-75
2022/11/04 14:43:45;;;;;;;;;;;10.60;99.90;;;;;;5105993;28;19931;-75
2022/11/04 14:46:16;;;;;;;;;;;10.50;99.90;;;;;;5076437;28;19916;-75
2022/11/04 14:48:50;;;;;;;;;;;10.50;99.90;;;;;;5075669;28;19917;-75
2022/11/04 14:51:38;;;;;;;;;;;10.60;99.90;;;;;;5073630;28;20259;-75
2022/11/04 14:54:04;;;;;;;;;;;10.60;99.90;;;;;;5073283;28;19924;-75
2022/11/04 14:56:30;;;;;;;;;;;10.50;99.90;;;;;;5073821;28;20009;-75
2022/11/04 14:59:00;;;;;;;;;;;10.50;99.90;;;;;;5074549;28;20026;-75
2022/11/04 15:01:28;;;;;;;;;;;10.50;99.90;;;;;;5070801;28;20366;-75
2022/11/04 15:03:55;;;;;;;;;;;10.40;99.90;;;;;;5073413;28;19918;-75
2022/11/04 15:06:25;;;;;;;;;;;10.40;99.90;;;;;;5074105;28;19919;-75
2022/11/04 15:08:51;;;;;;;;;;;10.40;99.90;;;;;;5063871;28;19916;-75